sensor_id;sensor_type;location;lat;lon;timestamp;pressure;altitude;pressure_sealevel;temperature;humidity
15971;BME280;59785;52.582;13.892;2022-08-03T00:01:36;100929.28;;;16.86;66.82
15971;BME280;59785;52.582;13.892;2022-08-03T00:04:06;100919.47;;;16.85;66.72
15971;BME280;59785;52.582;13.892;2022-08-03T00:06:33;100917.22;;;16.88;67.17
15971;BME280;59785;52.582;13.892;2022-08-03T00:09:05;100925.97;;;16.90;66.86
15971;BME280;59785;52.582;13.892;2022-08-03T00:11:32;100920.38;;;16.92;66.92
15971;BME280;59785;52.582;13.892;2022-08-03T00:13:58;100922.72;;;16.95;66.49
15971;BME280;59785;52.582;13.892;2022-08-03T00:16:24;100917.09;;;16.97;66.46
15971;BME280;59785;52.582;13.892;2022-08-03T00:18:51;100917.50;;;16.93;66.06
15971;BME280;59785;52.582;13.892;2022-08-03T00:21:17;100916.84;;;16.91;66.22
15971;BME280;59785;52.582;13.892;2022-08-03T00:23:44;100918.06;;;16.89;66.40
15971;BME280;59785;52.582;13.892;2022-08-03T00:26:16;100915.09;;;16.84;66.83
15971;BME280;59785;52.582;13.892;2022-08-03T00:28:43;100909.19;;;16.80;66.87
15971;BME280;59785;52.582;13.892;2022-08-03T00:31:09;100907.06;;;16.75;67.21
15971;BME280;59785;52.582;13.892;2022-08-03T00:33:38;100908.47;;;16.71;67.92
15971;BME280;59785;52.582;13.892;2022-08-03T00:36:24;100907.38;;;16.66;67.48
15971;BME280;59785;52.582;13.892;2022-08-03T00:38:50;100904.00;;;16.64;67.82
15971;BME280;59785;52.582;13.892;2022-08-03T00:41:17;100902.50;;;16.61;67.80
15971;BME280;59785;52.582;13.892;2022-08-03T00:43:43;100902.91;;;16.58;67.58
15971;BME280;59785;52.582;13.892;2022-08-03T00:46:09;100905.31;;;16.53;68.14
15971;BME280;59785;52.582;13.892;2022-08-03T00:48:36;100901.31;;;16.49;68.22
15971;BME280;59785;52.582;13.892;2022-08-03T00:51:02;100900.66;;;16.47;68.43
15971;BME280;59785;52.582;13.892;2022-08-03T00:53:28;100896.84;;;16.41;68.77
15971;BME280;59785;52.582;13.892;2022-08-03T00:55:55;100891.63;;;16.40;68.82
15971;BME280;59785;52.582;13.892;2022-08-03T00:58:21;100892.03;;;16.36;68.61
15971;BME280;59785;52.582;13.892;2022-08-03T01:00:49;100889.31;;;16.36;68.77
15971;BME280;59785;52.582;13.892;2022-08-03T01:03:15;100883.69;;;16.38;69.07
15971;BME280;59785;52.582;13.892;2022-08-03T01:07:10;100890.78;;;16.39;69.41
15971;BME280;59785;52.582;13.892;2022-08-03T01:09:18;100885.66;;;16.44;68.97
15971;BME280;59785;52.582;13.892;2022-08-03T01:12:12;100887.44;;;16.52;69.20
15971;BME280;59785;52.582;13.892;2022-08-03T01:14:45;100882.72;;;16.61;68.97
15971;BME280;59785;52.582;13.892;2022-08-03T01:17:18;100881.97;;;16.67;68.61
15971;BME280;59785;52.582;13.892;2022-08-03T01:19:53;100875.16;;;16.71;68.25
15971;BME280;59785;52.582;13.892;2022-08-03T01:22:57;100880.66;;;16.78;68.17
15971;BME280;59785;52.582;13.892;2022-08-03T01:31:23;100872.38;;;17.01;67.00
15971;BME280;59785;52.582;13.892;2022-08-03T01:33:56;100871.81;;;17.05;66.42
15971;BME280;59785;52.582;13.892;2022-08-03T01:36:29;100874.78;;;17.10;66.39
15971;BME280;59785;52.582;13.892;2022-08-03T01:39:00;100870.00;;;17.12;65.98
15971;BME280;59785;52.582;13.892;2022-08-03T01:41:33;100866.06;;;17.15;66.13
15971;BME280;59785;52.582;13.892;2022-08-03T01:44:02;100857.56;;;17.18;66.35
15971;BME280;59785;52.582;13.892;2022-08-03T01:46:48;100856.78;;;17.24;65.94
15971;BME280;59785;52.582;13.892;2022-08-03T01:49:16;100857.22;;;17.28;65.88
15971;BME280;59785;52.582;13.892;2022-08-03T01:51:44;100851.84;;;17.34;65.65
15971;BME280;59785;52.582;13.892;2022-08-03T01:54:30;100856.91;;;17.38;65.19
15971;BME280;59785;52.582;13.892;2022-08-03T01:56:58;100852.13;;;17.40;65.17
15971;BME280;59785;52.582;13.892;2022-08-03T01:59:25;100864.44;;;17.42;65.36
15971;BME280;59785;52.582;13.892;2022-08-03T02:01:53;100861.97;;;17.47;65.32
15971;BME280;59785;52.582;13.892;2022-08-03T02:04:41;100861.56;;;17.50;65.27
15971;BME280;59785;52.582;13.892;2022-08-03T02:07:09;100852.41;;;17.51;65.04
15971;BME280;59785;52.582;13.892;2022-08-03T02:09:40;100859.94;;;17.56;64.63
15971;BME280;59785;52.582;13.892;2022-08-03T02:12:10;100861.88;;;17.62;64.01
15971;BME280;59785;52.582;13.892;2022-08-03T02:14:38;100865.22;;;17.64;63.79
15971;BME280;59785;52.582;13.892;2022-08-03T02:17:06;100861.28;;;17.67;63.54
15971;BME280;59785;52.582;13.892;2022-08-03T02:19:33;100863.59;;;17.70;63.50
15971;BME280;59785;52.582;13.892;2022-08-03T02:22:01;100858.41;;;17.75;63.41
15971;BME280;59785;52.582;13.892;2022-08-03T02:24:30;100853.44;;;17.79;63.12
15971;BME280;59785;52.582;13.892;2022-08-03T02:26:58;100855.53;;;17.83;62.35
15971;BME280;59785;52.582;13.892;2022-08-03T02:29:27;100849.78;;;17.86;62.64
15971;BME280;59785;52.582;13.892;2022-08-03T02:32:11;100854.97;;;17.88;61.96
15971;BME280;59785;52.582;13.892;2022-08-03T02:34:41;100855.59;;;17.90;62.72
15971;BME280;59785;52.582;13.892;2022-08-03T02:37:12;100843.56;;;17.92;62.65
15971;BME280;59785;52.582;13.892;2022-08-03T02:39:39;100842.72;;;17.92;63.13
15971;BME280;59785;52.582;13.892;2022-08-03T02:42:08;100848.78;;;17.94;62.40
15971;BME280;59785;52.582;13.892;2022-08-03T02:44:38;100850.44;;;17.95;62.63
15971;BME280;59785;52.582;13.892;2022-08-03T02:47:08;100848.97;;;17.92;62.65
15971;BME280;59785;52.582;13.892;2022-08-03T02:49:37;100862.72;;;17.91;62.84
15971;BME280;59785;52.582;13.892;2022-08-03T02:52:19;100857.28;;;17.91;63.35
15971;BME280;59785;52.582;13.892;2022-08-03T02:54:48;100856.47;;;17.90;63.30
15971;BME280;59785;52.582;13.892;2022-08-03T02:57:17;100853.75;;;17.90;62.88
15971;BME280;59785;52.582;13.892;2022-08-03T02:59:45;100857.09;;;17.92;63.19
15971;BME280;59785;52.582;13.892;2022-08-03T03:02:13;100860.00;;;17.91;63.07
15971;BME280;59785;52.582;13.892;2022-08-03T03:04:41;100863.34;;;17.93;63.41
15971;BME280;59785;52.582;13.892;2022-08-03T03:07:29;100855.22;;;17.93;62.89
15971;BME280;59785;52.582;13.892;2022-08-03T03:10:05;100857.28;;;17.91;62.90
15971;BME280;59785;52.582;13.892;2022-08-03T03:12:32;100861.69;;;17.92;62.82
15971;BME280;59785;52.582;13.892;2022-08-03T03:14:58;100855.22;;;17.93;62.90
15971;BME280;59785;52.582;13.892;2022-08-03T03:17:25;100860.66;;;17.93;63.13
15971;BME280;59785;52.582;13.892;2022-08-03T03:19:52;100865.03;;;17.94;63.34
15971;BME280;59785;52.582;13.892;2022-08-03T03:22:20;100859.41;;;17.96;62.73
15971;BME280;59785;52.582;13.892;2022-08-03T03:24:47;100864.44;;;17.99;63.44
15971;BME280;59785;52.582;13.892;2022-08-03T03:27:16;100855.69;;;18.03;63.18
15971;BME280;59785;52.582;13.892;2022-08-03T03:29:43;100856.56;;;18.10;63.04
15971;BME280;59785;52.582;13.892;2022-08-03T03:32:09;100856.56;;;18.10;63.12
15971;BME280;59785;52.582;13.892;2022-08-03T03:34:36;100861.59;;;18.13;63.52
15971;BME280;59785;52.582;13.892;2022-08-03T03:37:02;100857.00;;;18.14;63.08
15971;BME280;59785;52.582;13.892;2022-08-03T03:39:28;100860.16;;;18.18;62.86
15971;BME280;59785;52.582;13.892;2022-08-03T03:41:55;100861.00;;;18.18;62.68
15971;BME280;59785;52.582;13.892;2022-08-03T03:44:26;100862.03;;;18.17;62.62
15971;BME280;59785;52.582;13.892;2022-08-03T03:46:52;100863.06;;;18.16;63.09
15971;BME280;59785;52.582;13.892;2022-08-03T03:49:19;100861.19;;;18.17;62.89
15971;BME280;59785;52.582;13.892;2022-08-03T03:51:46;100861.19;;;18.17;62.94
15971;BME280;59785;52.582;13.892;2022-08-03T03:54:12;100862.88;;;18.18;62.86
15971;BME280;59785;52.582;13.892;2022-08-03T03:56:38;100859.31;;;18.17;63.05
15971;BME280;59785;52.582;13.892;2022-08-03T03:59:04;100859.91;;;18.12;63.09
15971;BME280;59785;52.582;13.892;2022-08-03T04:01:31;100856.19;;;18.13;63.12
15971;BME280;59785;52.582;13.892;2022-08-03T04:03:57;100863.25;;;18.15;63.69
15971;BME280;59785;52.582;13.892;2022-08-03T04:06:43;100860.97;;;18.11;63.95
15971;BME280;59785;52.582;13.892;2022-08-03T04:09:29;100863.03;;;18.09;64.31
15971;BME280;59785;52.582;13.892;2022-08-03T04:12:14;100859.47;;;18.09;64.48
15971;BME280;59785;52.582;13.892;2022-08-03T04:14:42;100869.31;;;18.10;64.63
15971;BME280;59785;52.582;13.892;2022-08-03T04:17:11;100865.09;;;18.07;64.82
15971;BME280;59785;52.582;13.892;2022-08-03T04:19:44;100871.56;;;18.06;64.64
15971;BME280;59785;52.582;13.892;2022-08-03T04:22:16;100869.88;;;18.05;64.57
15971;BME280;59785;52.582;13.892;2022-08-03T04:24:46;100864.06;;;18.02;64.61
15971;BME280;59785;52.582;13.892;2022-08-03T04:27:15;100867.34;;;17.97;64.91
15971;BME280;59785;52.582;13.892;2022-08-03T04:29:46;100875.25;;;17.92;65.41
15971;BME280;59785;52.582;13.892;2022-08-03T04:32:15;100875.25;;;17.92;65.76
15971;BME280;59785;52.582;13.892;2022-08-03T04:34:42;100876.66;;;17.88;65.74
15971;BME280;59785;52.582;13.892;2022-08-03T04:37:11;100872.28;;;17.87;66.29
15971;BME280;59785;52.582;13.892;2022-08-03T04:39:38;100881.44;;;17.86;66.69
15971;BME280;59785;52.582;13.892;2022-08-03T04:42:10;100882.50;;;17.85;66.71
15971;BME280;59785;52.582;13.892;2022-08-03T04:44:40;100877.91;;;17.85;66.62
15971;BME280;59785;52.582;13.892;2022-08-03T04:47:07;100885.25;;;17.91;66.76
15971;BME280;59785;52.582;13.892;2022-08-03T04:49:35;100886.50;;;17.96;66.41
15971;BME280;59785;52.582;13.892;2022-08-03T04:52:04;100883.22;;;18.00;66.89
15971;BME280;59785;52.582;13.892;2022-08-03T04:54:41;100887.00;;;18.06;66.89
15971;BME280;59785;52.582;13.892;2022-08-03T04:57:15;100886.41;;;18.10;66.61
15971;BME280;59785;52.582;13.892;2022-08-03T04:59:49;100882.88;;;18.17;66.37
15971;BME280;59785;52.582;13.892;2022-08-03T05:02:26;100887.91;;;18.20;66.56
15971;BME280;59785;52.582;13.892;2022-08-03T05:04:52;100892.53;;;18.26;66.50
15971;BME280;59785;52.582;13.892;2022-08-03T05:07:18;100890.06;;;18.31;66.15
15971;BME280;59785;52.582;13.892;2022-08-03T05:09:50;100891.97;;;18.37;65.63
15971;BME280;59785;52.582;13.892;2022-08-03T05:12:22;100888.44;;;18.43;65.33
15971;BME280;59785;52.582;13.892;2022-08-03T05:14:48;100884.91;;;18.49;64.82
15971;BME280;59785;52.582;13.892;2022-08-03T05:17:14;100887.44;;;18.58;64.71
15971;BME280;59785;52.582;13.892;2022-08-03T05:19:41;100889.97;;;18.66;64.15
15971;BME280;59785;52.582;13.892;2022-08-03T05:22:07;100889.81;;;18.74;63.38
15971;BME280;59785;52.582;13.892;2022-08-03T05:24:33;100891.31;;;18.83;62.79
15971;BME280;59785;52.582;13.892;2022-08-03T05:26:59;100891.97;;;18.92;61.31
15971;BME280;59785;52.582;13.892;2022-08-03T05:29:26;100891.59;;;19.02;61.07
15971;BME280;59785;52.582;13.892;2022-08-03T05:31:52;100899.97;;;19.07;59.69
15971;BME280;59785;52.582;13.892;2022-08-03T05:34:18;100899.75;;;19.15;59.23
15971;BME280;59785;52.582;13.892;2022-08-03T05:36:44;100898.72;;;19.23;58.82
15971;BME280;59785;52.582;13.892;2022-08-03T05:39:10;100899.16;;;19.33;57.98
15971;BME280;59785;52.582;13.892;2022-08-03T05:41:36;100903.34;;;19.42;57.61
15971;BME280;59785;52.582;13.892;2022-08-03T05:44:03;100906.69;;;19.51;57.43
15971;BME280;59785;52.582;13.892;2022-08-03T05:46:29;100907.13;;;19.61;57.02
15971;BME280;59785;52.582;13.892;2022-08-03T05:48:55;100901.66;;;19.68;56.17
15971;BME280;59785;52.582;13.892;2022-08-03T05:51:22;100897.50;;;19.79;55.72
15971;BME280;59785;52.582;13.892;2022-08-03T05:53:48;100902.50;;;19.88;54.79
15971;BME280;59785;52.582;13.892;2022-08-03T05:56:14;100900.63;;;19.96;54.50
15971;BME280;59785;52.582;13.892;2022-08-03T05:58:46;100907.09;;;20.08;54.85
15971;BME280;59785;52.582;13.892;2022-08-03T06:01:13;100908.31;;;20.19;53.79
15971;BME280;59785;52.582;13.892;2022-08-03T06:03:40;100906.84;;;20.29;53.38
15971;BME280;59785;52.582;13.892;2022-08-03T06:06:06;100909.94;;;20.40;53.03
15971;BME280;59785;52.582;13.892;2022-08-03T06:08:34;100903.41;;;20.47;52.71
15971;BME280;59785;52.582;13.892;2022-08-03T06:11:00;100900.22;;;20.57;52.06
15971;BME280;59785;52.582;13.892;2022-08-03T06:13:26;100898.72;;;20.68;51.41
15971;BME280;59785;52.582;13.892;2022-08-03T06:15:52;100901.84;;;20.78;50.82
15971;BME280;59785;52.582;13.892;2022-08-03T06:18:18;100896.75;;;20.88;50.21
15971;BME280;59785;52.582;13.892;2022-08-03T06:20:45;100902.56;;;20.99;49.94
15971;BME280;59785;52.582;13.892;2022-08-03T06:23:14;100903.75;;;21.10;49.71
15971;BME280;59785;52.582;13.892;2022-08-03T06:25:42;100899.25;;;21.22;49.96
15971;BME280;59785;52.582;13.892;2022-08-03T06:28:08;100898.78;;;21.32;49.83
15971;BME280;59785;52.582;13.892;2022-08-03T06:30:53;100905.19;;;21.44;49.43
15971;BME280;59785;52.582;13.892;2022-08-03T06:33:19;100895.69;;;21.53;48.15
15971;BME280;59785;52.582;13.892;2022-08-03T06:35:46;100900.66;;;21.63;48.42
15971;BME280;59785;52.582;13.892;2022-08-03T06:38:12;100896.97;;;21.76;47.18
15971;BME280;59785;52.582;13.892;2022-08-03T06:40:38;100893.53;;;21.87;46.96
15971;BME280;59785;52.582;13.892;2022-08-03T06:43:07;100890.03;;;21.98;47.23
15971;BME280;59785;52.582;13.892;2022-08-03T06:45:38;100896.88;;;22.08;45.39
15971;BME280;59785;52.582;13.892;2022-08-03T06:48:07;100896.50;;;22.22;44.75
15971;BME280;59785;52.582;13.892;2022-08-03T06:50:35;100897.88;;;22.32;44.62
15971;BME280;59785;52.582;13.892;2022-08-03T06:53:03;100891.88;;;22.41;43.60
15971;BME280;59785;52.582;13.892;2022-08-03T06:55:30;100897.66;;;22.52;43.87
15971;BME280;59785;52.582;13.892;2022-08-03T06:57:57;100900.91;;;22.60;43.95
15971;BME280;59785;52.582;13.892;2022-08-03T07:00:28;100907.72;;;22.70;43.44
15971;BME280;59785;52.582;13.892;2022-08-03T07:02:55;100902.75;;;22.78;43.88
15971;BME280;59785;52.582;13.892;2022-08-03T07:05:23;100897.81;;;22.87;43.42
15971;BME280;59785;52.582;13.892;2022-08-03T07:07:49;100905.22;;;22.98;43.15
15971;BME280;59785;52.582;13.892;2022-08-03T07:10:15;100907.66;;;23.07;42.80
15971;BME280;59785;52.582;13.892;2022-08-03T07:12:42;100904.13;;;23.18;42.07
15971;BME280;59785;52.582;13.892;2022-08-03T07:15:21;100913.69;;;23.27;42.52
15971;BME280;59785;52.582;13.892;2022-08-03T07:18:08;100912.03;;;23.38;41.23
15971;BME280;59785;52.582;13.892;2022-08-03T07:20:34;100906.56;;;23.50;41.09
15971;BME280;59785;52.582;13.892;2022-08-03T07:23:00;100914.41;;;23.58;41.19
15971;BME280;59785;52.582;13.892;2022-08-03T07:25:26;100906.34;;;23.63;40.67
15971;BME280;59785;52.582;13.892;2022-08-03T07:27:52;100901.63;;;23.82;39.42
15971;BME280;59785;52.582;13.892;2022-08-03T07:30:21;100905.06;;;24.01;39.11
15971;BME280;59785;52.582;13.892;2022-08-03T07:32:47;100904.81;;;24.14;38.81
15971;BME280;59785;52.582;13.892;2022-08-03T07:35:15;100901.84;;;24.16;39.30
15971;BME280;59785;52.582;13.892;2022-08-03T07:37:50;100908.63;;;24.25;39.19
15971;BME280;59785;52.582;13.892;2022-08-03T07:40:19;100908.47;;;24.32;38.95
15971;BME280;59785;52.582;13.892;2022-08-03T07:42:46;100900.22;;;24.44;38.30
15971;BME280;59785;52.582;13.892;2022-08-03T07:45:16;100904.53;;;24.51;38.05
15971;BME280;59785;52.582;13.892;2022-08-03T07:47:42;100901.28;;;24.66;38.18
15971;BME280;59785;52.582;13.892;2022-08-03T07:50:18;100907.19;;;24.75;38.29
15971;BME280;59785;52.582;13.892;2022-08-03T07:52:44;100905.66;;;24.79;38.45
15971;BME280;59785;52.582;13.892;2022-08-03T07:55:19;100902.75;;;24.86;37.93
15971;BME280;59785;52.582;13.892;2022-08-03T07:57:46;100901.03;;;24.96;37.23
15971;BME280;59785;52.582;13.892;2022-08-03T08:00:17;100914.59;;;25.03;36.68
15971;BME280;59785;52.582;13.892;2022-08-03T08:02:44;100912.59;;;25.15;36.37
15971;BME280;59785;52.582;13.892;2022-08-03T08:05:10;100917.09;;;25.22;36.86
15971;BME280;59785;52.582;13.892;2022-08-03T08:07:38;100903.69;;;25.37;35.54
15971;BME280;59785;52.582;13.892;2022-08-03T08:10:06;100901.22;;;25.35;35.88
15971;BME280;59785;52.582;13.892;2022-08-03T08:12:32;100901.03;;;25.42;36.49
15971;BME280;59785;52.582;13.892;2022-08-03T08:14:58;100899.78;;;25.50;36.35
15971;BME280;59785;52.582;13.892;2022-08-03T08:17:25;100903.22;;;25.57;36.90
15971;BME280;59785;52.582;13.892;2022-08-03T08:19:51;100900.03;;;25.65;37.58
15971;BME280;59785;52.582;13.892;2022-08-03T08:22:18;100897.34;;;25.70;37.36
15971;BME280;59785;52.582;13.892;2022-08-03T08:24:55;100897.78;;;25.79;37.22
15971;BME280;59785;52.582;13.892;2022-08-03T08:27:21;100905.34;;;25.89;37.85
15971;BME280;59785;52.582;13.892;2022-08-03T08:29:48;100899.69;;;25.95;37.30
15971;BME280;59785;52.582;13.892;2022-08-03T08:32:21;100897.03;;;26.01;37.24
15971;BME280;59785;52.582;13.892;2022-08-03T08:34:47;100898.31;;;26.15;37.42
15971;BME280;59785;52.582;13.892;2022-08-03T08:37:13;100897.00;;;26.17;36.94
15971;BME280;59785;52.582;13.892;2022-08-03T08:39:39;100897.03;;;26.23;36.73
15971;BME280;59785;52.582;13.892;2022-08-03T08:42:06;100901.00;;;26.32;36.46
15971;BME280;59785;52.582;13.892;2022-08-03T08:44:32;100899.41;;;26.36;36.98
15971;BME280;59785;52.582;13.892;2022-08-03T08:47:01;100899.56;;;26.46;36.38
15971;BME280;59785;52.582;13.892;2022-08-03T08:49:28;100900.84;;;26.61;35.10
15971;BME280;59785;52.582;13.892;2022-08-03T08:51:58;100894.06;;;26.68;34.86
15971;BME280;59785;52.582;13.892;2022-08-03T08:54:27;100903.22;;;26.74;34.39
15971;BME280;59785;52.582;13.892;2022-08-03T08:56:55;100901.28;;;26.74;35.23
15971;BME280;59785;52.582;13.892;2022-08-03T08:59:23;100894.09;;;26.73;34.85
15971;BME280;59785;52.582;13.892;2022-08-03T09:01:50;100889.00;;;26.82;34.95
15971;BME280;59785;52.582;13.892;2022-08-03T09:04:16;100888.53;;;26.90;35.11
15971;BME280;59785;52.582;13.892;2022-08-03T09:06:43;100896.94;;;27.06;34.29
15971;BME280;59785;52.582;13.892;2022-08-03T09:09:35;100898.28;;;27.03;34.14
15971;BME280;59785;52.582;13.892;2022-08-03T09:12:21;100894.50;;;27.09;34.47
15971;BME280;59785;52.582;13.892;2022-08-03T09:15:24;100897.91;;;27.22;33.87
15971;BME280;59785;52.582;13.892;2022-08-03T09:17:55;100897.16;;;27.26;33.37
15971;BME280;59785;52.582;13.892;2022-08-03T09:20:23;100901.31;;;27.29;34.02
15971;BME280;59785;52.582;13.892;2022-08-03T09:23:06;100900.00;;;27.37;32.77
15971;BME280;59785;52.582;13.892;2022-08-03T09:25:58;100893.94;;;27.34;32.81
15971;BME280;59785;52.582;13.892;2022-08-03T09:28:33;100887.28;;;27.30;32.60
15971;BME280;59785;52.582;13.892;2022-08-03T09:31:31;100890.63;;;27.38;32.91
15971;BME280;59785;52.582;13.892;2022-08-03T09:34:01;100888.50;;;27.45;32.64
15971;BME280;59785;52.582;13.892;2022-08-03T09:36:41;100884.75;;;27.56;32.66
15971;BME280;59785;52.582;13.892;2022-08-03T09:39:13;100880.38;;;27.60;32.08
15971;BME280;59785;52.582;13.892;2022-08-03T09:41:42;100883.16;;;27.65;31.96
15971;BME280;59785;52.582;13.892;2022-08-03T09:44:09;100886.75;;;27.66;32.13
15971;BME280;59785;52.582;13.892;2022-08-03T09:46:53;100887.59;;;27.71;32.40
15971;BME280;59785;52.582;13.892;2022-08-03T09:49:20;100882.41;;;27.75;32.03
15971;BME280;59785;52.582;13.892;2022-08-03T09:51:46;100883.34;;;27.91;32.02
15971;BME280;59785;52.582;13.892;2022-08-03T09:54:33;100878.94;;;27.90;31.79
15971;BME280;59785;52.582;13.892;2022-08-03T09:56:59;100882.25;;;27.92;31.84
15971;BME280;59785;52.582;13.892;2022-08-03T09:59:28;100881.22;;;27.98;31.80
15971;BME280;59785;52.582;13.892;2022-08-03T10:01:55;100870.44;;;28.02;31.94
15971;BME280;59785;52.582;13.892;2022-08-03T10:04:22;100878.19;;;28.05;31.55
15971;BME280;59785;52.582;13.892;2022-08-03T10:07:09;100877.94;;;28.06;31.48
15971;BME280;59785;52.582;13.892;2022-08-03T10:09:36;100876.03;;;28.17;31.58
15971;BME280;59785;52.582;13.892;2022-08-03T10:12:10;100868.91;;;28.21;30.43
15971;BME280;59785;52.582;13.892;2022-08-03T10:14:38;100870.53;;;28.17;31.05
15971;BME280;59785;52.582;13.892;2022-08-03T10:17:04;100860.94;;;28.25;30.57
15971;BME280;59785;52.582;13.892;2022-08-03T10:19:32;100862.88;;;28.24;29.99
15971;BME280;59785;52.582;13.892;2022-08-03T10:22:06;100862.59;;;28.31;30.13
15971;BME280;59785;52.582;13.892;2022-08-03T10:24:36;100864.00;;;28.39;30.22
15971;BME280;59785;52.582;13.892;2022-08-03T10:27:07;100858.53;;;28.44;29.98
15971;BME280;59785;52.582;13.892;2022-08-03T10:29:38;100857.44;;;28.50;29.41
15971;BME280;59785;52.582;13.892;2022-08-03T10:32:30;100847.78;;;28.47;29.81
15971;BME280;59785;52.582;13.892;2022-08-03T10:35:04;100853.91;;;28.55;29.50
15971;BME280;59785;52.582;13.892;2022-08-03T10:38:01;100850.34;;;28.59;29.49
15971;BME280;59785;52.582;13.892;2022-08-03T10:40:30;100849.78;;;28.67;29.26
15971;BME280;59785;52.582;13.892;2022-08-03T10:43:20;100843.19;;;28.79;28.97
15971;BME280;59785;52.582;13.892;2022-08-03T10:45:48;100835.50;;;28.86;28.92
15971;BME280;59785;52.582;13.892;2022-08-03T10:48:15;100841.56;;;28.93;28.48
15971;BME280;59785;52.582;13.892;2022-08-03T10:50:42;100839.91;;;29.02;28.68
15971;BME280;59785;52.582;13.892;2022-08-03T10:53:09;100831.94;;;29.11;28.79
15971;BME280;59785;52.582;13.892;2022-08-03T10:55:41;100832.75;;;29.17;28.19
15971;BME280;59785;52.582;13.892;2022-08-03T11:01:06;100830.00;;;29.42;27.68
15971;BME280;59785;52.582;13.892;2022-08-03T11:04:12;100826.09;;;29.59;28.42
15971;BME280;59785;52.582;13.892;2022-08-03T11:06:21;100824.47;;;29.58;27.82
15971;BME280;59785;52.582;13.892;2022-08-03T11:11:40;100819.50;;;29.49;28.00
15971;BME280;59785;52.582;13.892;2022-08-03T11:14:09;100823.91;;;29.61;27.68
15971;BME280;59785;52.582;13.892;2022-08-03T11:16:41;100812.84;;;29.61;27.92
15971;BME280;59785;52.582;13.892;2022-08-03T11:19:12;100825.56;;;29.62;28.11
15971;BME280;59785;52.582;13.892;2022-08-03T11:29:55;100811.44;;;29.79;27.86
15971;BME280;59785;52.582;13.892;2022-08-03T11:35:31;100811.13;;;29.91;27.93
15971;BME280;59785;52.582;13.892;2022-08-03T11:40:33;100817.69;;;30.10;27.62
15971;BME280;59785;52.582;13.892;2022-08-03T11:42:59;100808.28;;;30.16;27.21
15971;BME280;59785;52.582;13.892;2022-08-03T11:45:26;100799.38;;;30.24;27.24
15971;BME280;59785;52.582;13.892;2022-08-03T11:47:54;100802.13;;;30.35;26.99
15971;BME280;59785;52.582;13.892;2022-08-03T11:50:20;100797.66;;;30.39;26.89
15971;BME280;59785;52.582;13.892;2022-08-03T11:52:48;100797.66;;;30.44;27.03
15971;BME280;59785;52.582;13.892;2022-08-03T15:12:15;100693.41;;;36.54;19.36
15971;BME280;59785;52.582;13.892;2022-08-03T15:14:41;100689.63;;;36.67;19.42
15971;BME280;59785;52.582;13.892;2022-08-03T15:17:08;100691.19;;;36.95;19.41
15971;BME280;59785;52.582;13.892;2022-08-03T15:19:34;100686.06;;;37.14;18.91
15971;BME280;59785;52.582;13.892;2022-08-03T15:22:21;100687.44;;;37.38;19.04
15971;BME280;59785;52.582;13.892;2022-08-03T15:24:59;100677.72;;;37.74;18.80
15971;BME280;59785;52.582;13.892;2022-08-03T15:27:25;100683.44;;;37.47;18.50
15971;BME280;59785;52.582;13.892;2022-08-03T15:29:51;100680.66;;;37.77;18.19
15971;BME280;59785;52.582;13.892;2022-08-03T15:32:35;100681.81;;;38.39;17.45
15971;BME280;59785;52.582;13.892;2022-08-03T15:35:01;100680.78;;;38.44;17.79
15971;BME280;59785;52.582;13.892;2022-08-03T15:37:30;100679.81;;;38.61;17.51
15971;BME280;59785;52.582;13.892;2022-08-03T15:39:56;100679.09;;;38.31;17.12
15971;BME280;59785;52.582;13.892;2022-08-03T15:42:25;100675.84;;;38.07;17.64
15971;BME280;59785;52.582;13.892;2022-08-03T15:44:52;100671.41;;;38.06;18.24
15971;BME280;59785;52.582;13.892;2022-08-03T15:47:19;100672.66;;;37.88;17.56
15971;BME280;59785;52.582;13.892;2022-08-03T15:49:46;100672.94;;;37.95;17.86
15971;BME280;59785;52.582;13.892;2022-08-03T15:52:12;100664.97;;;38.60;17.40
15971;BME280;59785;52.582;13.892;2022-08-03T15:54:38;100668.53;;;38.82;17.14
15971;BME280;59785;52.582;13.892;2022-08-03T15:57:04;100662.88;;;39.15;17.31
15971;BME280;59785;52.582;13.892;2022-08-03T15:59:30;100665.00;;;39.43;16.57
15971;BME280;59785;52.582;13.892;2022-08-03T16:01:57;100666.28;;;39.46;17.03
15971;BME280;59785;52.582;13.892;2022-08-03T16:04:23;100664.59;;;39.69;16.58
15971;BME280;59785;52.582;13.892;2022-08-03T16:06:52;100663.19;;;39.01;16.61
15971;BME280;59785;52.582;13.892;2022-08-03T16:09:18;100666.94;;;39.30;16.34
15971;BME280;59785;52.582;13.892;2022-08-03T16:12:04;100671.28;;;39.28;16.71
15971;BME280;59785;52.582;13.892;2022-08-03T16:14:40;100660.75;;;39.61;16.27
15971;BME280;59785;52.582;13.892;2022-08-03T16:17:17;100664.16;;;39.55;16.73
15971;BME280;59785;52.582;13.892;2022-08-03T16:19:44;100654.91;;;39.67;16.59
15971;BME280;59785;52.582;13.892;2022-08-03T16:22:10;100656.19;;;39.69;16.32
15971;BME280;59785;52.582;13.892;2022-08-03T16:24:39;100661.00;;;39.32;16.39
15971;BME280;59785;52.582;13.892;2022-08-03T16:27:05;100658.69;;;39.21;16.82
15971;BME280;59785;52.582;13.892;2022-08-03T16:29:42;100653.75;;;39.55;16.83
15971;BME280;59785;52.582;13.892;2022-08-03T16:32:09;100659.19;;;39.89;16.24
15971;BME280;59785;52.582;13.892;2022-08-03T16:34:36;100643.59;;;39.63;16.32
15971;BME280;59785;52.582;13.892;2022-08-03T16:37:04;100652.00;;;39.26;16.33
15971;BME280;59785;52.582;13.892;2022-08-03T16:39:50;100643.50;;;38.64;17.17